Strang, Nebraska
Current Conditions -  °F | °C
As of 8:35 PM on Saturday 25 Oct 2014 (Local Time) from KHJH Reporting Station
Clear Clear  
Wind Chill: 62°   Ceiling: Unl
Heat Index: 62°   Visibility: 10mi
Dew Point: 47°   Wind: 5mph
Humidity: 59%   Direction: 70°ENE
Pressure: 29.99"   Gusts: NA
Location:  40.42°N, 97.59°W
Report Text: KHJH 260135Z AUTO 07004KT 10SM CLR 17/09 A2999 RMK AO2 T01660085
Loading
Personal Weather Stations






























Interactive Weather Map New forecast layout! Learn more

10-Day Weather Forecast

Advertisements
Track Severe Weather on mobile